Lanagan, MO (64847)

7:35 AM CDT on March 27, 2017 (GMT -0500)
Brush Creek | | Change Station

Elev 1056 ft 36.51 °N, 94.34 °W | Updated 13 seconds ago

Overcast
Overcast
56.1 °F
Feels Like 56.1 °F
N
3.6
Wind Variable Wind from ESE
Gusts 4.9 mph

Today
High -- | Low -- °F
--% Chance of Precip.
Yesterday
High -- | Low -- °F
Precip. -- in
Pressure 29.79 in
Visibility 10.0 miles
Clouds Scattered Clouds 1000 ft
Mostly Cloudy 3000 ft
Overcast 4700 ft
Dew Point 56 °F
Humidity 98%
Rainfall 0.27 in
Snow Depth Not available.
7:10 AM 7:35 PM
Waning Crescent, 0% visible
METAR KGMJ 271215Z AUTO 07005KT 10SM RA SCT010 BKN030 OVC047 13/12 A2979 RMK AO2 LTG DSNT SE
Pressure 29.79 in
Visibility 10.0 miles
Clouds Scattered Clouds 1000 ft
Mostly Cloudy 3000 ft
Overcast 4700 ft
Dew Point 56 °F
Humidity 98%
Rainfall 0.27 in
Snow Depth Not available.
7:10 AM 7:35 PM
Waning Crescent, 0% visible
METAR KGMJ 271215Z AUTO 07005KT 10SM RA SCT010 BKN030 OVC047 13/12 A2979 RMK AO2 LTG DSNT SE

Get Severe Weather Alerts

Thanks for signing up!

Be on the lookout for a verification email in your inbox.

You'll start receiving the daily forecast at 8 AM.

×

10-Day Weather Forecast

Almanac

Astronomy

Mar. 27, 2017 Rise Set
Actual Time
Civil Twilight
Nautical Twilight
Astronomical Twilight
Moon
Length of Visible Light
Length of Day
Tomorrow will be .
, % of the Moon is Illuminated

Today's Extremes

State Highs State Lows

Community

WunderPhotos

Upload Photos

1,962,540 photos uploaded!

WunderBlog® & News

Nearby

Air Quality

  Air Quality AQ Index Pollutant
Not available.

Snow Depth

Station Depth Elevation

Earthquake Activity

City Distance Mag. Time & Date
Minimum magnitude displayed is 2.5.

Earthquake Activity

City Distance Mag. Time & Date
Minimum magnitude displayed is 2.5.

Coastal Water Temperatures

Place Temperature

Stations

Nearby Weather Stations

Station Location Temp. Windchill Dew Point Humidity Wind Precip. Elev Updated Type
                   

Watches & Warnings

There are currently no watches in effect.